M.v.jiaolong Spirit — C6WZ9 — position and weather

sailwx.info

Track history (hours):
 
Tides and Currents Weather Stations Pressure Air Temp Water Temp Dewpoint Dewpoint Depression Visibility Wind Speed Wind Dir Waves Ship Positions

M.v.jiaolong Spirit

Last reported at 2018-Feb-19 00:04 UTC. Time now 2018-Feb-21 03:55 UTC.
Position N 27°42' W 015°16'.

Length 271 m; draft 9.1 m.

Type: Tanker. MMSI: 309813000.

Date/timePositionNaut miles runAvg speedWind from/ knotsBaromVisibWave heightAir tempDewpointWater temp
2018-Feb-19 00:04N 27°42' W 015°16'112.5
2018-Feb-18 23:58N 27°43' W 015°15'611.9
2018-Feb-18 23:29N 27°49' W 015°14'612.1
2018-Feb-18 22:59N 27°55' W 015°14'612.2
2018-Feb-18 22:30N 28°01' W 015°14'611.8
2018-Feb-18 21:59N 28°05' W 015°19'510.3
2018-Feb-18 21:30N 28°09' W 015°23'1 1.5
2018-Feb-18 20:59N 28°08' W 015°24'0 0.0
2018-Feb-18 20:29N 28°08' W 015°24'0 0.0
2018-Feb-18 19:47N 28°08' W 015°24'0 0.0
2018-Feb-18 19:20N 28°08' W 015°24'0 0.0
2018-Feb-18 18:50N 28°08' W 015°24'0 0.0
2018-Feb-18 18:23N 28°08' W 015°24'0 0.0
2018-Feb-18 17:53N 28°08' W 015°24'0 0.1
2018-Feb-18 17:23N 28°08' W 015°24'0 0.0
2018-Feb-18 16:53N 28°08' W 015°24'0 0.0
2018-Feb-18 16:23N 28°09' W 015°24'0 0.0
2018-Feb-18 15:53N 28°09' W 015°24'0 0.1
2018-Feb-18 15:26N 28°09' W 015°24'0 0.0
2018-Feb-18 14:50N 28°09' W 015°24'0 0.1
2018-Feb-18 14:26N 28°09' W 015°24'0 0.0
2018-Feb-18 13:56N 28°09' W 015°24'0 0.1
2018-Feb-18 13:26N 28°09' W 015°24'0 0.0
2018-Feb-18 12:59N 28°09' W 015°24'0 0.0
2018-Feb-18 12:29N 28°09' W 015°24'0 0.0
2018-Feb-18 11:59N 28°09' W 015°24'0 0.1
2018-Feb-18 11:29N 28°09' W 015°24'0 0.5
2018-Feb-18 11:00N 28°09' W 015°24'1 2.5
2018-Feb-18 10:30N 28°08' W 015°22'0 0.8
2018-Feb-18 10:00N 28°08' W 015°22'0 0.9
2018-Feb-18 09:31N 28°08' W 015°22'1 1.9
2018-Feb-18 09:00N 28°08' W 015°21'1 2.2
2018-Feb-18 08:27N 28°08' W 015°20'3 6.3
2018-Feb-18 08:00N 28°10' W 015°17'5 9.3
2018-Feb-18 07:31N 28°13' W 015°13'5 9.8
2018-Feb-18 07:00N 28°17' W 015°09'510.7
2018-Feb-18 06:30N 28°21' W 015°05'611.2
2018-Feb-18 05:59N 28°25' W 015°01'611.0
2018-Feb-18 05:28N 28°29' W 014°57'510.9
2018-Feb-18 05:00N 28°33' W 014°53'610.8
2018-Feb-18 04:26N 28°38' W 014°49'  
2018-Feb-15 04:42N 35°58' W 005°36'2 8.3
2018-Feb-15 04:30N 35°58' W 005°35'4 8.5
2018-Feb-15 04:00N 35°59' W 005°30'4 8.9
2018-Feb-15 03:31N 36°01' W 005°25'5 9.4
2018-Feb-15 03:00N 36°05' W 005°22'1 1.8
2018-Feb-15 02:28N 36°06' W 005°21'0 0.0
2018-Feb-15 01:58N 36°06' W 005°21'0 0.0
2018-Feb-15 01:28N 36°06' W 005°21'0 0.0
2018-Feb-15 00:58N 36°06' W 005°21'0 0.0
2018-Feb-15 00:28N 36°06' W 005°21'0 0.0
2018-Feb-14 23:58N 36°06' W 005°21'0 0.1
2018-Feb-14 23:28N 36°06' W 005°21'0 0.0
2018-Feb-14 22:58N 36°06' W 005°21'0 0.0
2018-Feb-14 22:28N 36°06' W 005°21'0 0.0
2018-Feb-14 21:58N 36°06' W 005°21'0 0.1
2018-Feb-14 21:28N 36°06' W 005°21'0 0.1
2018-Feb-14 20:58N 36°06' W 005°21'0 0.0
2018-Feb-14 20:28N 36°06' W 005°21'0 0.1
2018-Feb-14 19:58N 36°06' W 005°21'0 0.1
2018-Feb-14 19:28N 36°06' W 005°21'0 0.0
2018-Feb-14 18:55N 36°06' W 005°21'0 0.0
2018-Feb-14 18:28N 36°06' W 005°21'0 0.1
2018-Feb-14 17:58N 36°06' W 005°21'0 0.4
2018-Feb-14 17:30N 36°06' W 005°21'2 3.1
2018-Feb-14 17:00N 36°05' W 005°22'2 3.3
2018-Feb-14 16:30N 36°03' W 005°21'2 3.1
2018-Feb-14 16:00N 36°02' W 005°20'3 5.5
2018-Feb-14 15:30N 36°01' W 005°16'  
2018-Feb-10 09:38N 35°59' W 005°14'214.1
2018-Feb-10 09:30N 35°59' W 005°16'713.9
2018-Feb-10 09:00N 35°58' W 005°24'  
Track history (hours):
 
Tides and Currents Weather Stations Pressure Air Temp Water Temp Dewpoint Dewpoint Depression Visibility Wind Speed Wind Dir Waves Ship Positions

M.v.jiaolong Spirit

Last reported at 2018-Feb-19 00:04 UTC. Time now 2018-Feb-21 03:55 UTC.
Position N 27°42' W 015°16'.

Length 271 m; draft 9.1 m.

Type: Tanker. MMSI: 309813000.

Date/timePositionNaut miles runAvg speedWind from/ knotsBaromVisibWave heightAir tempDewpointWater temp
2018-Feb-19 00:04N 27°42' W 015°16'112.5
2018-Feb-18 23:58N 27°43' W 015°15'611.9
2018-Feb-18 23:29N 27°49' W 015°14'612.1
2018-Feb-18 22:59N 27°55' W 015°14'612.2
2018-Feb-18 22:30N 28°01' W 015°14'611.8
2018-Feb-18 21:59N 28°05' W 015°19'510.3
2018-Feb-18 21:30N 28°09' W 015°23'1 1.5
2018-Feb-18 20:59N 28°08' W 015°24'0 0.0
2018-Feb-18 20:29N 28°08' W 015°24'0 0.0
2018-Feb-18 19:47N 28°08' W 015°24'0 0.0
2018-Feb-18 19:20N 28°08' W 015°24'0 0.0
2018-Feb-18 18:50N 28°08' W 015°24'0 0.0
2018-Feb-18 18:23N 28°08' W 015°24'0 0.0
2018-Feb-18 17:53N 28°08' W 015°24'0 0.1
2018-Feb-18 17:23N 28°08' W 015°24'0 0.0
2018-Feb-18 16:53N 28°08' W 015°24'0 0.0
2018-Feb-18 16:23N 28°09' W 015°24'0 0.0
2018-Feb-18 15:53N 28°09' W 015°24'0 0.1
2018-Feb-18 15:26N 28°09' W 015°24'0 0.0
2018-Feb-18 14:50N 28°09' W 015°24'0 0.1
2018-Feb-18 14:26N 28°09' W 015°24'0 0.0
2018-Feb-18 13:56N 28°09' W 015°24'0 0.1
2018-Feb-18 13:26N 28°09' W 015°24'0 0.0
2018-Feb-18 12:59N 28°09' W 015°24'0 0.0
2018-Feb-18 12:29N 28°09' W 015°24'0 0.0
2018-Feb-18 11:59N 28°09' W 015°24'0 0.1
2018-Feb-18 11:29N 28°09' W 015°24'0 0.5
2018-Feb-18 11:00N 28°09' W 015°24'1 2.5
2018-Feb-18 10:30N 28°08' W 015°22'0 0.8
2018-Feb-18 10:00N 28°08' W 015°22'0 0.9
2018-Feb-18 09:31N 28°08' W 015°22'1 1.9
2018-Feb-18 09:00N 28°08' W 015°21'1 2.2
2018-Feb-18 08:27N 28°08' W 015°20'3 6.3
2018-Feb-18 08:00N 28°10' W 015°17'5 9.3
2018-Feb-18 07:31N 28°13' W 015°13'5 9.8
2018-Feb-18 07:00N 28°17' W 015°09'510.7
2018-Feb-18 06:30N 28°21' W 015°05'611.2
2018-Feb-18 05:59N 28°25' W 015°01'611.0
2018-Feb-18 05:28N 28°29' W 014°57'510.9
2018-Feb-18 05:00N 28°33' W 014°53'610.8
2018-Feb-18 04:26N 28°38' W 014°49'  
2018-Feb-15 04:42N 35°58' W 005°36'2 8.3
2018-Feb-15 04:30N 35°58' W 005°35'4 8.5
2018-Feb-15 04:00N 35°59' W 005°30'4 8.9
2018-Feb-15 03:31N 36°01' W 005°25'5 9.4
2018-Feb-15 03:00N 36°05' W 005°22'1 1.8
2018-Feb-15 02:28N 36°06' W 005°21'0 0.0
2018-Feb-15 01:58N 36°06' W 005°21'0 0.0
2018-Feb-15 01:28N 36°06' W 005°21'0 0.0
2018-Feb-15 00:58N 36°06' W 005°21'0 0.0
2018-Feb-15 00:28N 36°06' W 005°21'0 0.0
2018-Feb-14 23:58N 36°06' W 005°21'0 0.1
2018-Feb-14 23:28N 36°06' W 005°21'0 0.0
2018-Feb-14 22:58N 36°06' W 005°21'0 0.0
2018-Feb-14 22:28N 36°06' W 005°21'0 0.0
2018-Feb-14 21:58N 36°06' W 005°21'0 0.1
2018-Feb-14 21:28N 36°06' W 005°21'0 0.1
2018-Feb-14 20:58N 36°06' W 005°21'0 0.0
2018-Feb-14 20:28N 36°06' W 005°21'0 0.1
2018-Feb-14 19:58N 36°06' W 005°21'0 0.1
2018-Feb-14 19:28N 36°06' W 005°21'0 0.0
2018-Feb-14 18:55N 36°06' W 005°21'0 0.0
2018-Feb-14 18:28N 36°06' W 005°21'0 0.1
2018-Feb-14 17:58N 36°06' W 005°21'0 0.4
2018-Feb-14 17:30N 36°06' W 005°21'2 3.1
2018-Feb-14 17:00N 36°05' W 005°22'2 3.3
2018-Feb-14 16:30N 36°03' W 005°21'2 3.1
2018-Feb-14 16:00N 36°02' W 005°20'3 5.5
2018-Feb-14 15:30N 36°01' W 005°16'  
2018-Feb-10 09:38N 35°59' W 005°14'214.1
2018-Feb-10 09:30N 35°59' W 005°16'713.9
2018-Feb-10 09:00N 35°58' W 005°24'  

Dump ship's entire track history